Terminal Aerodrome Forecast
Issued by NWS Shreveport, LA

Home | Current Version | Previous Version | Text Only | Print | Product List | Glossary On
Versions: 1 2 3 4 5 6 7 8 9 10 11 12
645
FTUS44 KSHV 211145
TAFLFK
TAF
KLFK 211145Z 2112/2212 13004KT P6SM VCSH BKN015 BKN250
      TEMPO 2112/2115 6SM BR
     FM212200 09005KT P6SM VCSH OVC010
     FM220400 01007KT P6SM OVC015
     FM221000 01008KT P6SM SCT020 BKN030=

USA.gov is the U.S. government's official web portal to all federal, state and local government web resources and services.